This is the latest recevied weather packets stored in our database for station/object DG1GMY-13. If no packets are shown the sender has not sent any weather packets the latest 10 day(s).
| Time | Temp. | Humidity | Pressure | Rain* | Wind** | Luminosity | Snow |
|---|---|---|---|---|---|---|---|
| 1777980019 | 16.67° C | 76% | 1009.9 hPa | - | - | - | - |
| 1777978214 | 17.78° C | 75% | 1010.1 hPa | - | - | - | - |
| 1777976407 | 18.33° C | 72% | 1010.2 hPa | - | - | - | - |
| 1777974601 | 17.22° C | 78% | 1010.4 hPa | - | - | - | - |
| 1777972796 | 16.11° C | 90% | 1010.4 hPa | - | - | - | - |
| 1777970990 | 15.56° C | 92% | 1010.6 hPa | - | - | - | - |
| 1777969184 | 15.56° C | 86% | 1010.8 hPa | - | - | - | - |
| 1777967378 | 15° C | 88% | 1011 hPa | - | - | - | - |
| 1777965572 | 14.44° C | 93% | 1011 hPa | - | - | - | - |
| 1777963766 | 13.89° C | 91% | 1011.1 hPa | - | - | - | - |
| 1777961960 | 14.44° C | 93% | 1011.1 hPa | - | - | - | - |
| 1777960154 | 13.33° C | 94% | 1010.9 hPa | - | - | - | - |
| 1777958348 | 13.33° C | 95% | 1011.1 hPa | - | - | - | - |
| 1777956542 | 12.78° C | 91% | 1011.2 hPa | - | - | - | - |
| 1777954736 | 12.22° C | 93% | 1011.2 hPa | - | - | - | - |
| 1777952930 | 11.67° C | 92% | 1010.9 hPa | - | - | - | - |
| 1777951124 | 11.67° C | 92% | 1011.1 hPa | - | - | - | - |
| 1777949318 | 12.78° C | 87% | 1011.4 hPa | - | - | - | - |
| 1777947512 | 12.78° C | 87% | 1011.7 hPa | - | - | - | - |
| 1777945706 | 12.78° C | 89% | 1012.1 hPa | - | - | - | - |
| 1777943900 | 13.33° C | 85% | 1012.3 hPa | - | - | - | - |
| 1777942094 | 13.89° C | 82% | 1012.4 hPa | - | - | - | - |
| 1777940288 | 13.89° C | 82% | 1012.8 hPa | - | - | - | - |
| 1777938482 | 13.89° C | 81% | 1012.9 hPa | - | - | - | - |
| 1777936676 | 13.89° C | 80% | 1013.2 hPa | - | - | - | - |
* Rain since midnight (hover to see other rain measurements)
** Current wind speed in m/s (hover to see current wind gust speed)